Nearby METAR Reports

 

KSJC - San Jose, California, USA
Distance from station: NE 9mi, 14km
Updated: Wed, 12-Dec-2018 7:53pm PST
Partly cloudy
Partly cloudy
 Wind from calm
Wind: Calm
Temperature: 54°F , 12°C
Dew Point: 45°F , 7°C
Humidity: 72%
Barometer: 30.29 inHg , 1025.7 hPa
Clouds: Partly cloudy
Visibility: 10 miles , 16 km
Cloud details: Few Clouds 7000 ft
Partly cloudy 20000 ft
2018/12/13 03:53 KSJC 130353Z 00000KT 10SM FEW070 SCT200 12/07 A3029 RMK AO2 SLP255 T01220067
KNUQ - Moffett Nas/Mtn, California, USA
Distance from station: N 9mi, 14km
Updated: Wed, 12-Dec-2018 7:56pm PST
Clear
Clear
 Wind from calm
Wind: Calm
Temperature: 54°F , 12°C
Dew Point: 43°F , 6°C
Humidity: 67%
Barometer: 30.29 inHg , 1025.7 hPa
Clouds: Clear
Visibility: 10 miles , 16 km
2018/12/13 03:56 KNUQ 130356Z 00000KT 10SM CLR 12/06 A3029 RMK AO2 SLP261 T01170061
KPAO - Palo Alto, California, USA
Distance from station: NNW 14mi, 23km
Updated: Wed, 12-Dec-2018 7:47pm PST
Clear
Clear
 Wind from calm
Wind: Calm
Temperature: 50°F , 10°C
Dew Point: 43°F , 6°C
Humidity: 76%
Barometer: 30.30 inHg , 1026.1 hPa
Clouds: Clear
Visibility: 10 miles , 16 km
2018/12/13 03:47 KPAO 130347Z 00000KT 10SM SKC 10/06 A3030
 
KRHV - San Jose/Reid, California, USA
Distance from station: ENE 12mi, 19km
Updated: Wed, 12-Dec-2018 7:47pm PST
Clear
Clear
 Wind from varies
Wind: varies 7 mph , 11 km/h
Temperature: 50°F , 10°C
Wind Chill: 47°F , 8°C
Dew Point: 41°F , 5°C
Humidity: 71%
Barometer: 30.27 inHg , 1025.1 hPa
Clouds: Clear
Visibility: 10 miles , 16 km
2018/12/13 03:47 KRHV 130347Z VRB06KT 10SM SKC 10/05 A3027
KOAK - Oakland, California, USA
Distance from station: NNW 31mi, 50km
Updated: Wed, 12-Dec-2018 7:53pm PST
Few Clouds
Few Clouds
 Wind from ESE
Wind: ESE 8 mph , 13 km/h
Temperature: 52°F , 11°C
Dew Point: 46°F , 8°C
Humidity: 82%
Barometer: 30.29 inHg , 1025.7 hPa
Clouds: Few Clouds
Visibility: 10 miles , 16 km
Cloud details: Few Clouds 20000 ft
2018/12/13 03:53 KOAK 130353Z 12007KT 10SM FEW200 11/08 A3029 RMK AO2 SLP255 T01060078
KSQL - San Carlos Airpo, California, USA
Distance from station: NW 21mi, 34km
Updated: Wed, 12-Dec-2018 7:47pm PST
Clear
Clear
 Wind from calm
Wind: Calm
Temperature: 54°F , 12°C
Dew Point: 39°F , 4°C
Humidity: 58%
Barometer: 30.29 inHg , 1025.7 hPa
Clouds: Clear
Visibility: 10 miles , 16 km
2018/12/13 03:47 KSQL 130347Z 00000KT 10SM SKC 12/04 A3029
 
KSFO - San Francisco, California, USA
Distance from station: NW 30mi, 49km
Updated: Wed, 12-Dec-2018 7:56pm PST
Few Clouds
Few Clouds
 Wind from W
Wind: W 13 mph , 20 km/h
Temperature: 52°F , 11°C
Dew Point: 46°F , 8°C
Humidity: 82%
Barometer: 30.28 inHg , 1025.4 hPa
Clouds: Few Clouds
Visibility: 10 miles , 16 km
Cloud details: Few Clouds 20000 ft
2018/12/13 03:56 KSFO 130356Z 28011KT 10SM FEW200 11/08 A3028 RMK AO2 SLP253 T01110078
KE16 - San Martin, California, USA
Distance from station: ESE 27mi, 43km
Updated: Wed, 12-Dec-2018 8:15pm PST
Clear
Clear
 Wind from S
Wind: S 3 mph , 6 km/h
Temperature: 46°F , 8°C
Dew Point: 41°F , 5°C
Humidity: 82%
Barometer: 30.31 inHg , 1026.4 hPa
Clouds: Clear
Visibility: 10 miles , 16 km
2018/12/13 04:15 KE16 130415Z AUTO 17003KT 10SM CLR 08/05 A3031 RMK AO2
KWVI - Watsonville, California, USA
Distance from station: SSE 27mi, 44km
Updated: Wed, 12-Dec-2018 7:53pm PST
Clear
Clear
 Wind from N
Wind: N 3 mph , 6 km/h
Temperature: 50°F , 10°C
Dew Point: 45°F , 7°C
Humidity: 82%
Barometer: 30.29 inHg , 1025.7 hPa
Clouds: Clear
Visibility: 10 miles , 16 km
2018/12/13 03:53 KWVI 130353Z AUTO 35003KT 10SM CLR 10/07 A3029 RMK AO2 SLP258 T01000067
 
KHAF - Half Moon Bay, California, USA
Distance from station: WNW 31mi, 50km
Updated: Wed, 12-Dec-2018 8:35pm PST
Clear
Clear
 Wind from calm
Wind: Calm
Temperature: 46°F , 8°C
Dew Point: 39°F , 4°C
Humidity: 76%
Barometer: 30.29 inHg , 1025.7 hPa
Clouds: Clear
Visibility: 10 miles , 16 km
2018/12/13 04:35 KHAF 130435Z AUTO 00000KT 10SM CLR 08/04 A3029 RMK AO2
KHWD - Hayward, California, USA
Distance from station: N 28mi, 44km
Updated: Wed, 12-Dec-2018 7:54pm PST
Clear
Clear
 Wind from E
Wind: E 5 mph , 7 km/h
Temperature: 52°F , 11°C
Dew Point: 43°F , 6°C
Humidity: 72%
Barometer: 30.28 inHg , 1025.4 hPa
Clouds: Clear
Visibility: 10 miles , 16 km
2018/12/13 03:54 KHWD 130354Z 08004KT 10SM CLR 11/06 A3028 RMK AO2 SLP265 T01110056
KLVK - Livermore, California, USA
Distance from station: NNE 31mi, 51km
Updated: Wed, 12-Dec-2018 7:53pm PST
Clear
Clear
 Wind from ENE
Wind: ENE 3 mph , 6 km/h
Temperature: 45°F , 7°C
Dew Point: 37°F , 3°C
Humidity: 76%
Barometer: 30.28 inHg , 1025.4 hPa
Clouds: Clear
Visibility: 10 miles , 16 km
2018/12/13 03:53 KLVK 130353Z 06003KT 10SM CLR 07/03 A3028 RMK AO2 SLP256 T00720028